Sinai, South Dakota
Current Conditions -  °F | °C
As of 4:55 PM on Friday 28 Nov 2014 (Local Time) from KMDS Reporting Station
Clear Clear  
Wind Chill: 21°   Ceiling: Unl
Heat Index: 30°   Visibility: 10mi
Dew Point: 28°   Wind: 10mph
Humidity: 93%   Direction: 140°SE
Pressure: 29.64"   Gusts: NA
Location:  44.24°N, 97.04°W
Report Text: KMDS 282255Z AUTO 14009KT 10SM CLR M01/M02 A2964 RMK AO2
Loading
Personal Weather Stations






























Interactive Weather Map New forecast layout! Learn more

10-Day Weather Forecast

Advertisements
Track Severe Weather on mobile